sensor_id;sensor_type;location;lat;lon;timestamp;temperature;humidity
3194;DHT22;1608;50.860;13.466;2023-01-26T00:02:14;4.50;99.90
3194;DHT22;1608;50.860;13.466;2023-01-26T00:04:42;4.50;99.90
3194;DHT22;1608;50.860;13.466;2023-01-26T00:07:09;4.50;99.90
3194;DHT22;1608;50.860;13.466;2023-01-26T00:09:36;4.60;99.90
3194;DHT22;1608;50.860;13.466;2023-01-26T00:12:03;4.50;99.90
3194;DHT22;1608;50.860;13.466;2023-01-26T00:14:30;4.60;99.90
3194;DHT22;1608;50.860;13.466;2023-01-26T00:17:15;4.60;99.90
3194;DHT22;1608;50.860;13.466;2023-01-26T00:19:52;4.60;99.90
3194;DHT22;1608;50.860;13.466;2023-01-26T00:22:19;4.50;99.90
3194;DHT22;1608;50.860;13.466;2023-01-26T00:24:46;4.40;99.90
3194;DHT22;1608;50.860;13.466;2023-01-26T00:27:13;4.20;99.90
3194;DHT22;1608;50.860;13.466;2023-01-26T00:29:40;4.00;99.90
3194;DHT22;1608;50.860;13.466;2023-01-26T00:32:07;3.70;99.90
3194;DHT22;1608;50.860;13.466;2023-01-26T00:34:33;3.70;99.90
3194;DHT22;1608;50.860;13.466;2023-01-26T00:37:01;3.70;99.90
3194;DHT22;1608;50.860;13.466;2023-01-26T00:39:28;3.60;99.90
3194;DHT22;1608;50.860;13.466;2023-01-26T00:41:55;3.50;99.90
3194;DHT22;1608;50.860;13.466;2023-01-26T00:44:40;3.40;99.90
3194;DHT22;1608;50.860;13.466;2023-01-26T00:47:08;3.00;99.90
3194;DHT22;1608;50.860;13.466;2023-01-26T00:49:35;2.70;99.90
3194;DHT22;1608;50.860;13.466;2023-01-26T00:52:04;2.80;99.90
3194;DHT22;1608;50.860;13.466;2023-01-26T00:54:31;2.50;99.90
3194;DHT22;1608;50.860;13.466;2023-01-26T00:56:58;2.50;99.90
3194;DHT22;1608;50.860;13.466;2023-01-26T00:59:25;2.80;99.90
3194;DHT22;1608;50.860;13.466;2023-01-26T01:01:52;3.00;99.90
3194;DHT22;1608;50.860;13.466;2023-01-26T01:04:19;3.30;99.90
3194;DHT22;1608;50.860;13.466;2023-01-26T01:06:46;3.60;99.90
3194;DHT22;1608;50.860;13.466;2023-01-26T01:09:14;3.80;99.90
3194;DHT22;1608;50.860;13.466;2023-01-26T01:11:41;4.00;99.90
3194;DHT22;1608;50.860;13.466;2023-01-26T01:14:10;3.80;99.90
3194;DHT22;1608;50.860;13.466;2023-01-26T01:16:37;3.80;99.90
3194;DHT22;1608;50.860;13.466;2023-01-26T01:19:04;3.80;99.90
3194;DHT22;1608;50.860;13.466;2023-01-26T01:21:31;3.60;99.90
3194;DHT22;1608;50.860;13.466;2023-01-26T01:23:58;3.70;99.90
3194;DHT22;1608;50.860;13.466;2023-01-26T01:26:26;3.70;99.90
3194;DHT22;1608;50.860;13.466;2023-01-26T01:28:53;3.60;99.90
3194;DHT22;1608;50.860;13.466;2023-01-26T01:31:22;3.60;99.90
3194;DHT22;1608;50.860;13.466;2023-01-26T01:33:50;3.50;99.90
3194;DHT22;1608;50.860;13.466;2023-01-26T01:36:17;3.60;99.90
3194;DHT22;1608;50.860;13.466;2023-01-26T01:38:44;3.40;99.90
3194;DHT22;1608;50.860;13.466;2023-01-26T01:41:12;3.30;99.90
3194;DHT22;1608;50.860;13.466;2023-01-26T01:43:41;3.30;99.90
3194;DHT22;1608;50.860;13.466;2023-01-26T01:46:16;3.50;99.90
3194;DHT22;1608;50.860;13.466;2023-01-26T01:48:49;3.80;99.90
3194;DHT22;1608;50.860;13.466;2023-01-26T01:51:20;3.70;99.90
3194;DHT22;1608;50.860;13.466;2023-01-26T01:53:52;3.80;99.90
3194;DHT22;1608;50.860;13.466;2023-01-26T01:56:23;3.90;99.90
3194;DHT22;1608;50.860;13.466;2023-01-26T01:58:56;4.10;99.90
3194;DHT22;1608;50.860;13.466;2023-01-26T02:01:24;4.20;99.90
3194;DHT22;1608;50.860;13.466;2023-01-26T02:03:54;4.20;99.90
3194;DHT22;1608;50.860;13.466;2023-01-26T02:06:27;4.30;99.90
3194;DHT22;1608;50.860;13.466;2023-01-26T02:08:55;4.30;99.90
3194;DHT22;1608;50.860;13.466;2023-01-26T02:11:26;4.30;99.90
3194;DHT22;1608;50.860;13.466;2023-01-26T02:13:56;4.40;99.90
3194;DHT22;1608;50.860;13.466;2023-01-26T02:16:23;4.40;99.90
3194;DHT22;1608;50.860;13.466;2023-01-26T02:18:50;4.40;99.90
3194;DHT22;1608;50.860;13.466;2023-01-26T02:21:19;4.60;99.90
3194;DHT22;1608;50.860;13.466;2023-01-26T02:23:57;4.40;99.90
3194;DHT22;1608;50.860;13.466;2023-01-26T02:26:31;4.40;99.90
3194;DHT22;1608;50.860;13.466;2023-01-26T02:28:58;4.40;99.90
3194;DHT22;1608;50.860;13.466;2023-01-26T02:31:26;4.40;99.90
3194;DHT22;1608;50.860;13.466;2023-01-26T02:33:53;4.50;99.90
3194;DHT22;1608;50.860;13.466;2023-01-26T02:36:22;4.50;99.90
3194;DHT22;1608;50.860;13.466;2023-01-26T02:39:10;4.40;99.90
3194;DHT22;1608;50.860;13.466;2023-01-26T02:41:41;4.40;99.90
3194;DHT22;1608;50.860;13.466;2023-01-26T02:44:25;4.40;99.90
3194;DHT22;1608;50.860;13.466;2023-01-26T02:46:53;4.40;99.90
3194;DHT22;1608;50.860;13.466;2023-01-26T02:49:19;4.40;99.90
3194;DHT22;1608;50.860;13.466;2023-01-26T02:52:04;4.90;99.90
3194;DHT22;1608;50.860;13.466;2023-01-26T02:54:31;4.40;99.90
3194;DHT22;1608;50.860;13.466;2023-01-26T02:57:17;4.40;99.90
3194;DHT22;1608;50.860;13.466;2023-01-26T02:59:44;4.20;99.90
3194;DHT22;1608;50.860;13.466;2023-01-26T03:02:11;4.10;99.90
3194;DHT22;1608;50.860;13.466;2023-01-26T03:04:38;4.20;99.90
3194;DHT22;1608;50.860;13.466;2023-01-26T03:07:04;4.30;99.90
3194;DHT22;1608;50.860;13.466;2023-01-26T03:09:31;4.30;99.90
3194;DHT22;1608;50.860;13.466;2023-01-26T03:11:58;4.40;99.90
3194;DHT22;1608;50.860;13.466;2023-01-26T03:14:26;4.40;99.90
3194;DHT22;1608;50.860;13.466;2023-01-26T03:16:53;4.40;99.90
3194;DHT22;1608;50.860;13.466;2023-01-26T03:19:21;4.40;99.90
3194;DHT22;1608;50.860;13.466;2023-01-26T03:22:08;3.90;99.90
3194;DHT22;1608;50.860;13.466;2023-01-26T03:24:52;4.00;99.90
3194;DHT22;1608;50.860;13.466;2023-01-26T03:27:38;3.90;99.90
3194;DHT22;1608;50.860;13.466;2023-01-26T03:30:08;4.00;99.90
3194;DHT22;1608;50.860;13.466;2023-01-26T03:32:35;4.00;99.90
3194;DHT22;1608;50.860;13.466;2023-01-26T03:35:03;4.00;99.90
3194;DHT22;1608;50.860;13.466;2023-01-26T03:37:30;4.10;99.90
3194;DHT22;1608;50.860;13.466;2023-01-26T03:40:01;4.10;99.90
3194;DHT22;1608;50.860;13.466;2023-01-26T03:42:44;4.10;99.90
3194;DHT22;1608;50.860;13.466;2023-01-26T03:45:30;4.00;99.90
3194;DHT22;1608;50.860;13.466;2023-01-26T03:48:14;4.00;99.90
3194;DHT22;1608;50.860;13.466;2023-01-26T03:50:59;3.90;99.90
3194;DHT22;1608;50.860;13.466;2023-01-26T03:53:43;3.90;99.90
3194;DHT22;1608;50.860;13.466;2023-01-26T03:56:28;3.90;99.90
3194;DHT22;1608;50.860;13.466;2023-01-26T03:58:58;3.90;99.90
3194;DHT22;1608;50.860;13.466;2023-01-26T04:01:34;3.80;99.90
3194;DHT22;1608;50.860;13.466;2023-01-26T04:04:01;3.80;99.90
3194;DHT22;1608;50.860;13.466;2023-01-26T04:06:46;3.90;99.90
3194;DHT22;1608;50.860;13.466;2023-01-26T04:09:31;4.30;99.90
3194;DHT22;1608;50.860;13.466;2023-01-26T04:11:59;4.10;99.90
3194;DHT22;1608;50.860;13.466;2023-01-26T04:17:12;4.20;99.90
3194;DHT22;1608;50.860;13.466;2023-01-26T04:19:56;4.20;99.90
3194;DHT22;1608;50.860;13.466;2023-01-26T04:22:41;4.20;99.90
3194;DHT22;1608;50.860;13.466;2023-01-26T04:25:10;4.40;99.90
3194;DHT22;1608;50.860;13.466;2023-01-26T04:27:38;4.20;99.90
3194;DHT22;1608;50.860;13.466;2023-01-26T04:30:06;4.30;99.90
3194;DHT22;1608;50.860;13.466;2023-01-26T04:32:35;4.30;99.90
3194;DHT22;1608;50.860;13.466;2023-01-26T04:35:02;4.40;99.90
3194;DHT22;1608;50.860;13.466;2023-01-26T04:37:29;4.40;99.90
3194;DHT22;1608;50.860;13.466;2023-01-26T04:39:55;4.40;99.90
3194;DHT22;1608;50.860;13.466;2023-01-26T04:42:22;4.40;99.90
3194;DHT22;1608;50.860;13.466;2023-01-26T04:44:50;4.50;99.90
3194;DHT22;1608;50.860;13.466;2023-01-26T04:47:17;4.50;99.90
3194;DHT22;1608;50.860;13.466;2023-01-26T04:49:45;4.40;99.90
3194;DHT22;1608;50.860;13.466;2023-01-26T04:52:12;4.70;99.90
3194;DHT22;1608;50.860;13.466;2023-01-26T04:54:39;4.60;99.90
3194;DHT22;1608;50.860;13.466;2023-01-26T04:57:07;4.40;99.90
3194;DHT22;1608;50.860;13.466;2023-01-26T04:59:34;4.40;99.90
3194;DHT22;1608;50.860;13.466;2023-01-26T05:02:01;4.20;99.90
3194;DHT22;1608;50.860;13.466;2023-01-26T05:04:28;4.60;99.90
3194;DHT22;1608;50.860;13.466;2023-01-26T05:06:57;4.40;99.90
3194;DHT22;1608;50.860;13.466;2023-01-26T05:09:23;4.40;99.90
3194;DHT22;1608;50.860;13.466;2023-01-26T05:11:50;4.40;99.90
3194;DHT22;1608;50.860;13.466;2023-01-26T05:14:17;4.40;99.90
3194;DHT22;1608;50.860;13.466;2023-01-26T05:16:44;4.30;99.90
3194;DHT22;1608;50.860;13.466;2023-01-26T05:19:11;4.40;99.90
3194;DHT22;1608;50.860;13.466;2023-01-26T05:21:37;4.30;99.90
3194;DHT22;1608;50.860;13.466;2023-01-26T05:24:06;4.30;99.90
3194;DHT22;1608;50.860;13.466;2023-01-26T05:26:33;4.30;99.90
3194;DHT22;1608;50.860;13.466;2023-01-26T05:29:00;4.30;99.90
3194;DHT22;1608;50.860;13.466;2023-01-26T05:31:27;4.30;99.90
3194;DHT22;1608;50.860;13.466;2023-01-26T05:33:54;4.30;99.90
3194;DHT22;1608;50.860;13.466;2023-01-26T05:36:21;4.60;99.90
3194;DHT22;1608;50.860;13.466;2023-01-26T05:38:47;4.30;99.90
3194;DHT22;1608;50.860;13.466;2023-01-26T05:41:15;4.40;99.90
3194;DHT22;1608;50.860;13.466;2023-01-26T05:43:42;4.40;99.90
3194;DHT22;1608;50.860;13.466;2023-01-26T05:46:09;4.40;99.90
3194;DHT22;1608;50.860;13.466;2023-01-26T05:48:36;4.30;99.90
3194;DHT22;1608;50.860;13.466;2023-01-26T05:51:03;4.30;99.90
3194;DHT22;1608;50.860;13.466;2023-01-26T05:53:30;4.30;99.90
3194;DHT22;1608;50.860;13.466;2023-01-26T05:55:56;4.30;99.90
3194;DHT22;1608;50.860;13.466;2023-01-26T05:58:25;4.30;99.90
3194;DHT22;1608;50.860;13.466;2023-01-26T06:00:51;4.30;99.90
3194;DHT22;1608;50.860;13.466;2023-01-26T06:03:18;4.30;99.90
3194;DHT22;1608;50.860;13.466;2023-01-26T06:05:51;4.30;99.90
3194;DHT22;1608;50.860;13.466;2023-01-26T06:08:18;4.30;99.90
3194;DHT22;1608;50.860;13.466;2023-01-26T06:10:45;4.30;99.90
3194;DHT22;1608;50.860;13.466;2023-01-26T06:13:12;4.30;99.90
3194;DHT22;1608;50.860;13.466;2023-01-26T06:15:40;4.40;99.90
3194;DHT22;1608;50.860;13.466;2023-01-26T06:18:07;4.40;99.90
3194;DHT22;1608;50.860;13.466;2023-01-26T06:20:33;4.30;99.90
3194;DHT22;1608;50.860;13.466;2023-01-26T06:23:00;4.30;99.90
3194;DHT22;1608;50.860;13.466;2023-01-26T06:25:27;4.40;99.90
3194;DHT22;1608;50.860;13.466;2023-01-26T06:27:56;4.30;99.90
3194;DHT22;1608;50.860;13.466;2023-01-26T06:30:23;4.40;99.90
3194;DHT22;1608;50.860;13.466;2023-01-26T06:32:51;4.30;99.90
3194;DHT22;1608;50.860;13.466;2023-01-26T06:35:18;4.30;99.90
3194;DHT22;1608;50.860;13.466;2023-01-26T06:37:47;4.30;99.90
3194;DHT22;1608;50.860;13.466;2023-01-26T06:40:14;4.20;99.90
3194;DHT22;1608;50.860;13.466;2023-01-26T06:42:46;3.60;99.90
3194;DHT22;1608;50.860;13.466;2023-01-26T06:45:13;3.50;99.90
3194;DHT22;1608;50.860;13.466;2023-01-26T06:47:43;3.50;99.90
3194;DHT22;1608;50.860;13.466;2023-01-26T06:50:13;3.60;99.90
3194;DHT22;1608;50.860;13.466;2023-01-26T06:52:41;3.80;99.90
3194;DHT22;1608;50.860;13.466;2023-01-26T06:55:16;3.70;99.90
3194;DHT22;1608;50.860;13.466;2023-01-26T06:57:43;3.70;99.90
3194;DHT22;1608;50.860;13.466;2023-01-26T07:00:11;3.70;99.90
3194;DHT22;1608;50.860;13.466;2023-01-26T07:02:38;3.80;99.90
3194;DHT22;1608;50.860;13.466;2023-01-26T07:05:06;3.70;99.90
3194;DHT22;1608;50.860;13.466;2023-01-26T07:07:34;3.70;99.90
3194;DHT22;1608;50.860;13.466;2023-01-26T07:10:01;3.50;99.90
3194;DHT22;1608;50.860;13.466;2023-01-26T07:12:37;3.20;99.90
3194;DHT22;1608;50.860;13.466;2023-01-26T07:15:04;3.10;99.90
3194;DHT22;1608;50.860;13.466;2023-01-26T07:17:31;3.00;99.90
3194;DHT22;1608;50.860;13.466;2023-01-26T07:19:58;3.00;99.90
3194;DHT22;1608;50.860;13.466;2023-01-26T07:22:25;3.40;99.90
3194;DHT22;1608;50.860;13.466;2023-01-26T07:24:53;3.30;99.90
3194;DHT22;1608;50.860;13.466;2023-01-26T07:27:20;3.60;99.90
3194;DHT22;1608;50.860;13.466;2023-01-26T07:29:47;3.80;99.90
3194;DHT22;1608;50.860;13.466;2023-01-26T07:32:14;4.00;99.90
3194;DHT22;1608;50.860;13.466;2023-01-26T07:34:41;4.10;99.90
3194;DHT22;1608;50.860;13.466;2023-01-26T07:37:08;4.30;99.90
3194;DHT22;1608;50.860;13.466;2023-01-26T07:39:35;4.30;99.90
3194;DHT22;1608;50.860;13.466;2023-01-26T07:42:03;4.30;99.90
3194;DHT22;1608;50.860;13.466;2023-01-26T07:44:30;4.40;99.90
3194;DHT22;1608;50.860;13.466;2023-01-26T07:46:57;4.40;99.90
3194;DHT22;1608;50.860;13.466;2023-01-26T07:49:24;4.30;99.90
3194;DHT22;1608;50.860;13.466;2023-01-26T07:51:50;4.30;99.90
3194;DHT22;1608;50.860;13.466;2023-01-26T07:54:18;3.80;99.90
3194;DHT22;1608;50.860;13.466;2023-01-26T07:56:50;3.50;99.90
3194;DHT22;1608;50.860;13.466;2023-01-26T07:59:18;3.30;99.90
3194;DHT22;1608;50.860;13.466;2023-01-26T08:01:45;3.10;99.90
3194;DHT22;1608;50.860;13.466;2023-01-26T08:04:14;3.40;99.90
3194;DHT22;1608;50.860;13.466;2023-01-26T08:06:40;3.50;99.90
3194;DHT22;1608;50.860;13.466;2023-01-26T08:09:07;3.70;99.90
3194;DHT22;1608;50.860;13.466;2023-01-26T08:11:34;3.60;99.90
3194;DHT22;1608;50.860;13.466;2023-01-26T08:14:01;3.80;99.90
3194;DHT22;1608;50.860;13.466;2023-01-26T08:16:29;3.90;99.90
3194;DHT22;1608;50.860;13.466;2023-01-26T08:18:56;3.90;99.90
3194;DHT22;1608;50.860;13.466;2023-01-26T08:21:23;3.50;99.90
3194;DHT22;1608;50.860;13.466;2023-01-26T08:23:50;3.60;99.90
3194;DHT22;1608;50.860;13.466;2023-01-26T08:26:18;3.80;99.90
3194;DHT22;1608;50.860;13.466;2023-01-26T08:28:45;3.90;99.90
3194;DHT22;1608;50.860;13.466;2023-01-26T08:31:14;3.30;99.90
3194;DHT22;1608;50.860;13.466;2023-01-26T08:33:45;3.40;99.90
3194;DHT22;1608;50.860;13.466;2023-01-26T08:36:13;3.50;99.90
3194;DHT22;1608;50.860;13.466;2023-01-26T08:38:41;3.40;99.90
3194;DHT22;1608;50.860;13.466;2023-01-26T08:41:08;3.30;99.90
3194;DHT22;1608;50.860;13.466;2023-01-26T08:43:36;3.40;99.90
3194;DHT22;1608;50.860;13.466;2023-01-26T08:46:03;3.50;99.90
3194;DHT22;1608;50.860;13.466;2023-01-26T08:48:30;3.40;99.90
3194;DHT22;1608;50.860;13.466;2023-01-26T08:51:00;3.10;99.90
3194;DHT22;1608;50.860;13.466;2023-01-26T08:53:30;3.00;99.90
3194;DHT22;1608;50.860;13.466;2023-01-26T08:55:59;2.90;99.90
3194;DHT22;1608;50.860;13.466;2023-01-26T08:58:26;2.90;99.90
3194;DHT22;1608;50.860;13.466;2023-01-26T09:00:53;2.80;99.90
3194;DHT22;1608;50.860;13.466;2023-01-26T09:03:20;3.50;99.90
3194;DHT22;1608;50.860;13.466;2023-01-26T09:05:47;3.50;99.90
3194;DHT22;1608;50.860;13.466;2023-01-26T09:08:15;4.60;99.90
3194;DHT22;1608;50.860;13.466;2023-01-26T09:10:41;3.10;99.90
3194;DHT22;1608;50.860;13.466;2023-01-26T09:13:09;2.50;99.90
3194;DHT22;1608;50.860;13.466;2023-01-26T09:15:37;2.40;99.90
3194;DHT22;1608;50.860;13.466;2023-01-26T09:18:04;2.60;99.90
3194;DHT22;1608;50.860;13.466;2023-01-26T09:20:30;2.80;99.90
3194;DHT22;1608;50.860;13.466;2023-01-26T09:22:57;3.00;99.90
3194;DHT22;1608;50.860;13.466;2023-01-26T09:25:25;2.90;99.90
3194;DHT22;1608;50.860;13.466;2023-01-26T09:27:52;3.10;99.90
3194;DHT22;1608;50.860;13.466;2023-01-26T09:30:19;3.40;99.90
3194;DHT22;1608;50.860;13.466;2023-01-26T09:32:46;3.60;99.90
3194;DHT22;1608;50.860;13.466;2023-01-26T09:35:13;3.90;99.90
3194;DHT22;1608;50.860;13.466;2023-01-26T09:37:42;4.00;99.90
3194;DHT22;1608;50.860;13.466;2023-01-26T09:40:16;4.10;99.90
3194;DHT22;1608;50.860;13.466;2023-01-26T09:42:57;3.90;99.90
3194;DHT22;1608;50.860;13.466;2023-01-26T09:45:28;3.90;99.90
3194;DHT22;1608;50.860;13.466;2023-01-26T09:48:11;3.80;99.90
3194;DHT22;1608;50.860;13.466;2023-01-26T09:50:47;3.80;99.90
3194;DHT22;1608;50.860;13.466;2023-01-26T09:53:19;3.50;99.90
3194;DHT22;1608;50.860;13.466;2023-01-26T09:55:49;3.50;99.90
3194;DHT22;1608;50.860;13.466;2023-01-26T09:58:27;3.60;99.90
3194;DHT22;1608;50.860;13.466;2023-01-26T10:00:59;3.70;99.90
3194;DHT22;1608;50.860;13.466;2023-01-26T10:03:31;3.80;99.90
3194;DHT22;1608;50.860;13.466;2023-01-26T10:06:03;3.90;99.90
3194;DHT22;1608;50.860;13.466;2023-01-26T10:08:32;4.20;99.90
3194;DHT22;1608;50.860;13.466;2023-01-26T10:11:01;4.40;99.90
3194;DHT22;1608;50.860;13.466;2023-01-26T10:13:32;4.60;99.90
3194;DHT22;1608;50.860;13.466;2023-01-26T10:16:02;4.80;99.90
3194;DHT22;1608;50.860;13.466;2023-01-26T10:18:33;4.90;99.90
3194;DHT22;1608;50.860;13.466;2023-01-26T10:21:04;4.80;99.90
3194;DHT22;1608;50.860;13.466;2023-01-26T10:23:33;4.80;99.90
3194;DHT22;1608;50.860;13.466;2023-01-26T10:26:10;4.80;99.90
3194;DHT22;1608;50.860;13.466;2023-01-26T10:28:40;4.90;99.90
3194;DHT22;1608;50.860;13.466;2023-01-26T10:31:13;5.00;99.90
3194;DHT22;1608;50.860;13.466;2023-01-26T10:33:44;5.00;99.90
3194;DHT22;1608;50.860;13.466;2023-01-26T10:36:14;5.10;99.90
3194;DHT22;1608;50.860;13.466;2023-01-26T10:38:43;5.10;99.90
3194;DHT22;1608;50.860;13.466;2023-01-26T10:41:25;5.20;99.90
3194;DHT22;1608;50.860;13.466;2023-01-26T10:43:54;5.10;99.90
3194;DHT22;1608;50.860;13.466;2023-01-26T10:46:30;4.90;99.90
3194;DHT22;1608;50.860;13.466;2023-01-26T10:48:59;4.80;99.90
3194;DHT22;1608;50.860;13.466;2023-01-26T10:51:28;4.90;99.90
3194;DHT22;1608;50.860;13.466;2023-01-26T10:54:20;4.80;99.90
3194;DHT22;1608;50.860;13.466;2023-01-26T10:56:50;4.60;99.90
3194;DHT22;1608;50.860;13.466;2023-01-26T10:59:25;4.60;99.90
3194;DHT22;1608;50.860;13.466;2023-01-26T11:01:54;3.90;99.90
3194;DHT22;1608;50.860;13.466;2023-01-26T11:04:22;3.60;99.90
3194;DHT22;1608;50.860;13.466;2023-01-26T11:06:50;3.40;99.90
3194;DHT22;1608;50.860;13.466;2023-01-26T11:09:19;3.70;99.90
3194;DHT22;1608;50.860;13.466;2023-01-26T11:11:58;3.80;99.90
3194;DHT22;1608;50.860;13.466;2023-01-26T11:14:28;3.70;99.90
3194;DHT22;1608;50.860;13.466;2023-01-26T11:17:00;3.40;99.90
3194;DHT22;1608;50.860;13.466;2023-01-26T11:20:00;3.10;99.90
3194;DHT22;1608;50.860;13.466;2023-01-26T11:22:35;2.90;99.90
3194;DHT22;1608;50.860;13.466;2023-01-26T11:25:13;2.90;99.90
3194;DHT22;1608;50.860;13.466;2023-01-26T11:27:49;3.30;99.90
3194;DHT22;1608;50.860;13.466;2023-01-26T11:33:27;3.20;99.90
3194;DHT22;1608;50.860;13.466;2023-01-26T11:36:02;2.80;99.90
3194;DHT22;1608;50.860;13.466;2023-01-26T11:38:36;3.30;99.90
3194;DHT22;1608;50.860;13.466;2023-01-26T11:41:17;3.30;99.90
3194;DHT22;1608;50.860;13.466;2023-01-26T11:44:02;2.60;99.90
3194;DHT22;1608;50.860;13.466;2023-01-26T11:46:46;2.60;99.90
3194;DHT22;1608;50.860;13.466;2023-01-26T11:49:26;2.80;99.90
3194;DHT22;1608;50.860;13.466;2023-01-26T11:52:02;2.60;99.90
3194;DHT22;1608;50.860;13.466;2023-01-26T11:54:41;2.50;99.90
3194;DHT22;1608;50.860;13.466;2023-01-26T11:57:20;2.80;99.90
3194;DHT22;1608;50.860;13.466;2023-01-26T11:59:56;2.90;99.90
3194;DHT22;1608;50.860;13.466;2023-01-26T12:02:28;3.60;99.90
3194;DHT22;1608;50.860;13.466;2023-01-26T12:04:59;3.60;99.90
3194;DHT22;1608;50.860;13.466;2023-01-26T12:07:29;3.90;99.90
3194;DHT22;1608;50.860;13.466;2023-01-26T12:10:16;3.90;99.90
3194;DHT22;1608;50.860;13.466;2023-01-26T12:12:48;3.50;99.90
3194;DHT22;1608;50.860;13.466;2023-01-26T12:15:18;3.70;99.90
3194;DHT22;1608;50.860;13.466;2023-01-26T12:17:57;3.80;99.90
3194;DHT22;1608;50.860;13.466;2023-01-26T12:20:29;3.70;99.90
3194;DHT22;1608;50.860;13.466;2023-01-26T12:23:03;3.70;99.90
3194;DHT22;1608;50.860;13.466;2023-01-26T12:25:33;3.90;99.90
3194;DHT22;1608;50.860;13.466;2023-01-26T12:28:09;3.60;99.90
3194;DHT22;1608;50.860;13.466;2023-01-26T12:30:42;3.90;99.90
3194;DHT22;1608;50.860;13.466;2023-01-26T12:33:13;3.70;99.90
3194;DHT22;1608;50.860;13.466;2023-01-26T12:35:48;3.70;99.90
3194;DHT22;1608;50.860;13.466;2023-01-26T12:38:18;4.20;99.90
3194;DHT22;1608;50.860;13.466;2023-01-26T12:40:57;4.60;99.90
3194;DHT22;1608;50.860;13.466;2023-01-26T12:43:46;4.80;99.90
3194;DHT22;1608;50.860;13.466;2023-01-26T12:46:16;4.70;99.90
3194;DHT22;1608;50.860;13.466;2023-01-26T12:48:47;4.60;99.90
3194;DHT22;1608;50.860;13.466;2023-01-26T12:51:19;4.50;99.90
3194;DHT22;1608;50.860;13.466;2023-01-26T12:53:52;4.60;99.90
3194;DHT22;1608;50.860;13.466;2023-01-26T12:56:23;4.60;99.90
3194;DHT22;1608;50.860;13.466;2023-01-26T12:58:52;4.80;99.90
3194;DHT22;1608;50.860;13.466;2023-01-26T13:01:22;4.90;99.90
3194;DHT22;1608;50.860;13.466;2023-01-26T13:03:54;4.80;99.90
3194;DHT22;1608;50.860;13.466;2023-01-26T13:06:23;4.10;99.90
3194;DHT22;1608;50.860;13.466;2023-01-26T13:08:58;4.00;99.90
3194;DHT22;1608;50.860;13.466;2023-01-26T13:11:45;4.20;99.90
3194;DHT22;1608;50.860;13.466;2023-01-26T13:14:32;4.50;99.90
3194;DHT22;1608;50.860;13.466;2023-01-26T13:20:22;4.50;99.90
3194;DHT22;1608;50.860;13.466;2023-01-26T13:22:49;4.70;99.90
3194;DHT22;1608;50.860;13.466;2023-01-26T13:25:18;4.70;99.90
3194;DHT22;1608;50.860;13.466;2023-01-26T13:27:48;4.70;99.90
3194;DHT22;1608;50.860;13.466;2023-01-26T13:30:41;4.70;99.90
3194;DHT22;1608;50.860;13.466;2023-01-26T13:33:15;4.70;99.90
3194;DHT22;1608;50.860;13.466;2023-01-26T13:35:45;4.70;99.90
3194;DHT22;1608;50.860;13.466;2023-01-26T13:38:26;4.80;99.90
3194;DHT22;1608;50.860;13.466;2023-01-26T13:40:54;4.90;99.90
3194;DHT22;1608;50.860;13.466;2023-01-26T13:43:26;4.80;99.90
3194;DHT22;1608;50.860;13.466;2023-01-26T13:46:00;4.90;99.90
3194;DHT22;1608;50.860;13.466;2023-01-26T13:48:38;4.60;99.90
3194;DHT22;1608;50.860;13.466;2023-01-26T13:51:10;4.00;99.90
3194;DHT22;1608;50.860;13.466;2023-01-26T13:53:40;4.00;99.90
3194;DHT22;1608;50.860;13.466;2023-01-26T13:56:24;3.80;99.90
3194;DHT22;1608;50.860;13.466;2023-01-26T13:58:51;3.90;99.90
3194;DHT22;1608;50.860;13.466;2023-01-26T14:01:19;4.00;99.90
3194;DHT22;1608;50.860;13.466;2023-01-26T14:03:46;4.10;99.90
3194;DHT22;1608;50.860;13.466;2023-01-26T14:06:16;4.30;99.90
3194;DHT22;1608;50.860;13.466;2023-01-26T14:08:50;4.40;99.90
3194;DHT22;1608;50.860;13.466;2023-01-26T14:11:19;4.40;99.90
3194;DHT22;1608;50.860;13.466;2023-01-26T14:13:49;4.40;99.90
3194;DHT22;1608;50.860;13.466;2023-01-26T14:16:21;4.50;99.90
3194;DHT22;1608;50.860;13.466;2023-01-26T14:18:49;4.50;99.90
3194;DHT22;1608;50.860;13.466;2023-01-26T14:21:20;4.60;99.90
3194;DHT22;1608;50.860;13.466;2023-01-26T14:23:54;4.30;99.90
3194;DHT22;1608;50.860;13.466;2023-01-26T14:26:26;3.70;99.90
3194;DHT22;1608;50.860;13.466;2023-01-26T14:28:54;3.70;99.90
3194;DHT22;1608;50.860;13.466;2023-01-26T14:31:22;3.80;99.90
3194;DHT22;1608;50.860;13.466;2023-01-26T14:33:51;3.90;99.90
3194;DHT22;1608;50.860;13.466;2023-01-26T14:36:24;3.60;99.90
3194;DHT22;1608;50.860;13.466;2023-01-26T14:38:53;3.50;99.90
3194;DHT22;1608;50.860;13.466;2023-01-26T14:41:22;3.40;99.90
3194;DHT22;1608;50.860;13.466;2023-01-26T14:43:51;3.40;99.90
3194;DHT22;1608;50.860;13.466;2023-01-26T14:46:23;3.20;99.90
3194;DHT22;1608;50.860;13.466;2023-01-26T14:48:52;3.40;99.90
3194;DHT22;1608;50.860;13.466;2023-01-26T14:51:23;3.40;99.90
3194;DHT22;1608;50.860;13.466;2023-01-26T14:53:53;3.20;99.90
3194;DHT22;1608;50.860;13.466;2023-01-26T14:56:31;2.80;99.90
3194;DHT22;1608;50.860;13.466;2023-01-26T14:58:58;3.00;99.90
3194;DHT22;1608;50.860;13.466;2023-01-26T15:01:26;3.20;99.90
3194;DHT22;1608;50.860;13.466;2023-01-26T15:03:58;3.60;99.90
3194;DHT22;1608;50.860;13.466;2023-01-26T15:06:29;3.40;99.90
3194;DHT22;1608;50.860;13.466;2023-01-26T15:08:59;3.20;99.90
3194;DHT22;1608;50.860;13.466;2023-01-26T15:11:31;3.40;99.90
3194;DHT22;1608;50.860;13.466;2023-01-26T15:14:34;3.50;99.90
3194;DHT22;1608;50.860;13.466;2023-01-26T15:17:01;3.40;99.90
3194;DHT22;1608;50.860;13.466;2023-01-26T15:19:36;3.10;99.90
3194;DHT22;1608;50.860;13.466;2023-01-26T15:22:13;3.20;99.90
3194;DHT22;1608;50.860;13.466;2023-01-26T15:24:41;3.10;99.90
3194;DHT22;1608;50.860;13.466;2023-01-26T15:27:10;3.20;99.90
3194;DHT22;1608;50.860;13.466;2023-01-26T15:29:37;2.70;99.90
3194;DHT22;1608;50.860;13.466;2023-01-26T15:32:05;2.70;99.90
3194;DHT22;1608;50.860;13.466;2023-01-26T15:34:33;2.70;99.90
3194;DHT22;1608;50.860;13.466;2023-01-26T15:37:01;2.40;99.90
3194;DHT22;1608;50.860;13.466;2023-01-26T15:39:30;2.30;99.90
3194;DHT22;1608;50.860;13.466;2023-01-26T15:42:06;2.30;99.90
3194;DHT22;1608;50.860;13.466;2023-01-26T15:44:36;2.20;99.90
3194;DHT22;1608;50.860;13.466;2023-01-26T15:47:03;2.30;99.90
3194;DHT22;1608;50.860;13.466;2023-01-26T15:49:30;2.00;99.90
3194;DHT22;1608;50.860;13.466;2023-01-26T15:51:57;2.20;99.90
3194;DHT22;1608;50.860;13.466;2023-01-26T15:54:24;2.40;99.90
3194;DHT22;1608;50.860;13.466;2023-01-26T15:56:52;2.60;99.90
3194;DHT22;1608;50.860;13.466;2023-01-26T15:59:18;2.60;99.90
3194;DHT22;1608;50.860;13.466;2023-01-26T16:01:45;2.70;99.90
3194;DHT22;1608;50.860;13.466;2023-01-26T16:04:12;2.90;99.90
3194;DHT22;1608;50.860;13.466;2023-01-26T16:06:39;3.00;99.90
3194;DHT22;1608;50.860;13.466;2023-01-26T16:09:06;3.20;99.90
3194;DHT22;1608;50.860;13.466;2023-01-26T16:11:35;3.30;99.90
3194;DHT22;1608;50.860;13.466;2023-01-26T16:14:04;3.30;99.90
3194;DHT22;1608;50.860;13.466;2023-01-26T16:16:32;3.40;99.90
3194;DHT22;1608;50.860;13.466;2023-01-26T16:18:59;3.40;99.90
3194;DHT22;1608;50.860;13.466;2023-01-26T16:21:28;3.40;99.90
3194;DHT22;1608;50.860;13.466;2023-01-26T16:23:57;3.40;99.90
3194;DHT22;1608;50.860;13.466;2023-01-26T16:26:25;3.60;99.90
3194;DHT22;1608;50.860;13.466;2023-01-26T16:28:52;2.90;99.90
3194;DHT22;1608;50.860;13.466;2023-01-26T16:31:22;2.50;99.90
3194;DHT22;1608;50.860;13.466;2023-01-26T16:33:49;2.20;99.90